createdAt,value
2022-11-21T00:00:39.678Z,97506.00
2022-11-21T00:02:45.126Z,97506.34
2022-11-21T00:04:50.478Z,97501.16
2022-11-21T00:06:56.804Z,97504.66
2022-11-21T00:09:03.423Z,97512.44
2022-11-21T00:11:08.822Z,97506.63
2022-11-21T00:13:18.332Z,97500.03
2022-11-21T00:15:29.039Z,97494.22
2022-11-21T00:17:34.682Z,97487.41
2022-11-21T00:19:41.103Z,97476.19
2022-11-21T00:21:46.658Z,97467.47
2022-11-21T00:23:52.015Z,97472.53
2022-11-21T00:25:58.329Z,97467.41
2022-11-21T00:28:04.001Z,97475.75
2022-11-21T00:30:13.414Z,97465.53
2022-11-21T00:32:22.427Z,97468.13
2022-11-21T00:34:28.045Z,97476.81
2022-11-21T00:36:33.522Z,97479.81
2022-11-21T00:38:41.055Z,97474.91
2022-11-21T00:40:47.690Z,97469.09
2022-11-21T00:42:53.166Z,97461.66
2022-11-21T00:44:59.478Z,97467.91
2022-11-21T00:47:07.190Z,97462.84
2022-11-21T00:49:15.714Z,97451.72
2022-11-21T00:51:21.951Z,97451.84
2022-11-21T00:53:27.419Z,97444.97
2022-11-21T00:55:32.789Z,97453.50
2022-11-21T00:57:39.009Z,97453.38
2022-11-21T00:59:44.344Z,97457.66
2022-11-21T01:01:49.761Z,97453.25
2022-11-21T01:03:56.022Z,97452.06
2022-11-21T01:06:10.322Z,97450.94
2022-11-21T01:08:15.651Z,97448.03
2022-11-21T01:10:22.097Z,97442.59
2022-11-21T01:12:27.755Z,97439.72
2022-11-21T01:14:33.261Z,97430.75
2022-11-21T01:16:39.485Z,97440.06
2022-11-21T01:18:45.703Z,97432.13
2022-11-21T01:20:51.159Z,97440.63
2022-11-21T01:23:00.174Z,97432.00
2022-11-21T01:25:09.113Z,97428.63
2022-11-21T01:27:14.726Z,97428.78
2022-11-21T01:29:21.353Z,97424.03
2022-11-21T01:31:30.155Z,97427.66
2022-11-21T01:33:36.541Z,97417.97
2022-11-21T01:35:42.705Z,97421.88
2022-11-21T01:37:51.118Z,97419.75
2022-11-21T01:39:59.475Z,97421.72
2022-11-21T01:42:08.299Z,97420.88
2022-11-21T01:44:22.183Z,97420.16
2022-11-21T01:46:28.914Z,97415.13
2022-11-21T01:48:44.725Z,97414.41
2022-11-21T01:50:50.397Z,97416.22
2022-11-21T01:52:56.232Z,97422.56
2022-11-21T01:55:12.727Z,97415.75
2022-11-21T01:57:26.957Z,97418.44
2022-11-21T01:59:37.685Z,97407.31
2022-11-21T02:01:45.602Z,97410.88
2022-11-21T02:03:53.092Z,97418.06
2022-11-21T02:06:00.376Z,97420.63
2022-11-21T02:08:18.015Z,97420.78
2022-11-21T02:10:28.061Z,97417.41
2022-11-21T02:12:43.202Z,97430.44
2022-11-21T02:14:51.406Z,97419.34
2022-11-21T02:17:05.694Z,97422.03
2022-11-21T02:19:23.277Z,97416.00
2022-11-21T02:21:49.514Z,97419.47
2022-11-21T02:24:07.132Z,97409.97
2022-11-21T02:26:17.301Z,97416.13
2022-11-21T02:28:27.256Z,97418.91
2022-11-21T02:30:38.697Z,97414.81
2022-11-21T02:32:49.673Z,97416.78
2022-11-21T02:34:55.898Z,97418.59
2022-11-21T02:37:03.988Z,97409.53
2022-11-21T02:39:12.615Z,97399.59
2022-11-21T02:41:29.362Z,97395.75
2022-11-21T02:43:44.753Z,97397.69
2022-11-21T02:45:50.622Z,97388.31
2022-11-21T02:48:03.910Z,97383.97
2022-11-21T02:50:18.353Z,97383.97
2022-11-21T02:52:23.705Z,97397.56
2022-11-21T02:54:30.167Z,97388.84
2022-11-21T02:56:38.494Z,97382.03
2022-11-21T02:58:44.084Z,97388.75
2022-11-21T03:00:50.397Z,97387.03
2022-11-21T03:02:56.325Z,97388.63
2022-11-21T03:05:04.363Z,97394.66
2022-11-21T03:07:10.888Z,97395.50
2022-11-21T03:09:16.559Z,97396.38
2022-11-21T03:11:21.853Z,97400.56
2022-11-21T03:13:30.865Z,97400.56
2022-11-21T03:15:38.220Z,97286.63
2022-11-21T03:17:44.268Z,97379.78
2022-11-21T03:19:50.528Z,97378.81
2022-11-21T03:21:55.997Z,97367.56
2022-11-21T03:24:03.528Z,97372.59
2022-11-21T03:26:09.881Z,97370.81
2022-11-21T03:28:15.213Z,97361.41
2022-11-21T03:30:24.631Z,97357.34
2022-11-21T03:32:30.808Z,97361.53
2022-11-21T03:34:36.730Z,97361.53
2022-11-21T03:36:42.270Z,97358.88
2022-11-21T03:38:48.700Z,97358.88
2022-11-21T03:40:54.163Z,97355.41
2022-11-21T03:42:59.518Z,97362.38
2022-11-21T03:45:09.623Z,97359.97
2022-11-21T03:47:17.760Z,97354.88
2022-11-21T03:49:23.125Z,97349.94
2022-11-21T03:51:30.143Z,97349.94
2022-11-21T03:53:35.771Z,97347.63
2022-11-21T03:55:41.641Z,97346.97
2022-11-21T03:57:47.885Z,97339.22
2022-11-21T03:59:53.274Z,97331.28
2022-11-21T04:01:58.617Z,97330.28
2022-11-21T04:04:08.486Z,97331.94
2022-11-21T04:06:17.118Z,97319.16
2022-11-21T04:08:22.467Z,97330.28
2022-11-21T04:10:28.754Z,97325.09
2022-11-21T04:12:34.072Z,97308.16
2022-11-21T04:14:39.497Z,97314.03
2022-11-21T04:16:45.861Z,97313.19
2022-11-21T04:18:51.330Z,97315.00
2022-11-21T04:21:03.878Z,97307.22
2022-11-21T04:23:10.975Z,97299.47
2022-11-21T04:25:16.734Z,97306.47
2022-11-21T04:27:22.079Z,97294.50
2022-11-21T04:29:28.428Z,97294.81
2022-11-21T04:31:33.843Z,97293.75
2022-11-21T04:33:39.540Z,97296.34
2022-11-21T04:35:48.041Z,97283.41
2022-11-21T04:37:56.631Z,97286.84
2022-11-21T04:40:03.118Z,97279.03
2022-11-21T04:42:09.500Z,97290.38
2022-11-21T04:44:15.022Z,97293.84
2022-11-21T04:46:20.643Z,97290.38
2022-11-21T04:48:27.131Z,97284.34
2022-11-21T04:50:32.500Z,97289.56
2022-11-21T04:52:39.087Z,97279.28
2022-11-21T04:54:48.315Z,97276.06
2022-11-21T04:56:53.618Z,97275.13
2022-11-21T04:58:58.977Z,97271.56
2022-11-21T05:01:11.149Z,97260.25
2022-11-21T05:03:16.559Z,97257.75
2022-11-21T05:05:22.338Z,97262.19
2022-11-21T05:07:28.667Z,97258.97
2022-11-21T05:09:34.072Z,97251.28
2022-11-21T05:11:58.021Z,97247.19
2022-11-21T05:14:04.448Z,97249.25
2022-11-21T05:16:10.786Z,97251.19
2022-11-21T05:18:16.721Z,97254.94
2022-11-21T05:20:22.989Z,97247.91
2022-11-21T05:22:28.480Z,97239.31
2022-11-21T05:24:33.857Z,97242.06
2022-11-21T05:26:42.992Z,97245.88
2022-11-21T05:28:48.846Z,97249.59
2022-11-21T05:30:54.204Z,97236.28
2022-11-21T05:33:00.427Z,97239.09
2022-11-21T05:35:08.494Z,97239.22
2022-11-21T05:37:13.929Z,97240.28
2022-11-21T05:39:20.336Z,97240.38
2022-11-21T05:41:25.824Z,97238.63
2022-11-21T05:43:46.290Z,97242.00
2022-11-21T05:45:53.385Z,97241.88
2022-11-21T05:47:58.893Z,97239.22
2022-11-21T05:50:06.575Z,97242.72
2022-11-21T05:52:12.942Z,97246.19
2022-11-21T05:54:18.853Z,97258.06
2022-11-21T05:56:24.200Z,97256.19
2022-11-21T05:58:35.105Z,97266.25
2022-11-21T06:00:41.082Z,97265.25
2022-11-21T06:03:04.303Z,97258.94
2022-11-21T06:05:12.100Z,97253.53
2022-11-21T06:07:17.569Z,97259.47
2022-11-21T06:09:22.966Z,97247.31
2022-11-21T06:11:30.140Z,97251.44
2022-11-21T06:13:39.203Z,97250.31
2022-11-21T06:15:44.622Z,97244.28
2022-11-21T06:17:50.903Z,97240.66
2022-11-21T06:19:56.546Z,97244.09
2022-11-21T06:22:05.592Z,97238.06
2022-11-21T06:24:12.596Z,97240.59
2022-11-21T06:26:21.025Z,97240.66
2022-11-21T06:28:26.684Z,97243.97
2022-11-21T06:30:36.574Z,97242.16
2022-11-21T06:32:42.050Z,97236.97
2022-11-21T06:34:47.467Z,97239.63
2022-11-21T06:36:53.730Z,97233.63
2022-11-21T06:39:00.037Z,97225.78
2022-11-21T06:41:17.774Z,97226.63
2022-11-21T06:43:25.609Z,97225.66
2022-11-21T06:45:30.959Z,97219.72
2022-11-21T06:47:39.935Z,97220.56
2022-11-21T06:49:46.143Z,97229.09
2022-11-21T06:51:51.509Z,97228.13
2022-11-21T06:53:59.961Z,97234.06
2022-11-21T06:56:08.987Z,97228.84
2022-11-21T06:58:14.680Z,97227.78
2022-11-21T07:00:22.089Z,97222.63
2022-11-21T07:02:28.342Z,97219.25
2022-11-21T07:04:37.464Z,97223.53
2022-11-21T07:06:42.800Z,97216.81
2022-11-21T07:09:17.577Z,97219.50
2022-11-21T07:11:24.914Z,97216.03
2022-11-21T07:13:40.884Z,97210.94
2022-11-21T07:15:49.974Z,97215.06
2022-11-21T07:17:56.085Z,97207.44
2022-11-21T07:20:09.921Z,97204.63
2022-11-21T07:22:16.151Z,97203.75
2022-11-21T07:24:22.054Z,97212.88
2022-11-21T07:26:27.707Z,97222.25
2022-11-21T07:28:43.112Z,97214.28
2022-11-21T07:30:48.745Z,97219.00
2022-11-21T07:33:00.104Z,97216.16
2022-11-21T07:35:14.561Z,97223.34
2022-11-21T07:37:19.945Z,97216.22
2022-11-21T07:39:25.883Z,97215.16
2022-11-21T07:41:32.611Z,97214.81
2022-11-21T07:43:38.199Z,97204.16
2022-11-21T07:45:43.583Z,97210.84
2022-11-21T07:47:50.289Z,97206.16
2022-11-21T07:49:56.530Z,97199.66
2022-11-21T07:52:08.798Z,97206.09
2022-11-21T07:54:15.413Z,97201.38
2022-11-21T07:56:20.730Z,97201.00
2022-11-21T07:58:26.516Z,97205.78
2022-11-21T08:00:35.422Z,97195.94
2022-11-21T08:02:42.013Z,97204.34
2022-11-21T08:04:47.623Z,97189.16
2022-11-21T08:06:53.848Z,97190.38
2022-11-21T08:09:03.559Z,97189.00
2022-11-21T08:11:11.578Z,97185.16
2022-11-21T08:13:18.486Z,97183.19
2022-11-21T08:15:23.813Z,97186.31
2022-11-21T08:17:29.487Z,97187.63
2022-11-21T08:19:36.036Z,97188.06
2022-11-21T08:21:41.413Z,97185.16
2022-11-21T08:23:46.832Z,97190.03
2022-11-21T08:25:55.788Z,97195.84
2022-11-21T08:28:05.559Z,97125.28
2022-11-21T08:30:14.338Z,97190.94
2022-11-21T08:32:20.632Z,97191.34
2022-11-21T08:34:26.213Z,97201.41
2022-11-21T08:36:31.628Z,97197.66
2022-11-21T08:38:37.911Z,97203.38
2022-11-21T08:40:43.725Z,97191.91
2022-11-21T08:42:55.958Z,97197.69
2022-11-21T08:45:04.076Z,97196.69
2022-11-21T08:47:09.633Z,97197.38
2022-11-21T08:49:15.603Z,97192.19
2022-11-21T08:51:21.884Z,97190.00
2022-11-21T08:53:27.429Z,97185.22
2022-11-21T08:55:34.156Z,97196.19
2022-11-21T08:57:41.546Z,97195.13
2022-11-21T08:59:49.672Z,97193.00
2022-11-21T09:01:55.412Z,97193.53
2022-11-21T09:04:03.462Z,97194.22
2022-11-21T09:06:09.299Z,97181.13
2022-11-21T09:08:14.649Z,97180.94
2022-11-21T09:10:21.885Z,97186.03
2022-11-21T09:12:27.402Z,97189.31
2022-11-21T09:14:49.533Z,97186.47
2022-11-21T09:17:14.705Z,97172.00
2022-11-21T09:19:21.232Z,97170.50
2022-11-21T09:21:26.567Z,97168.19
2022-11-21T09:23:32.881Z,97170.34
2022-11-21T09:25:38.905Z,97092.00
2022-11-21T09:27:44.296Z,97169.56
2022-11-21T09:29:54.032Z,97171.72
2022-11-21T09:32:03.550Z,97170.56
2022-11-21T09:34:09.101Z,97165.81
2022-11-21T09:36:15.435Z,97160.41
2022-11-21T09:38:24.023Z,97155.22
2022-11-21T09:40:33.488Z,97148.34
2022-11-21T09:43:06.464Z,97156.72
2022-11-21T09:45:22.582Z,97153.00
2022-11-21T09:47:34.758Z,97155.59
2022-11-21T09:49:50.195Z,97158.03
2022-11-21T09:51:59.861Z,97151.13
2022-11-21T09:54:22.531Z,97149.25
2022-11-21T09:56:37.262Z,97149.84
2022-11-21T09:58:51.464Z,97153.59
2022-11-21T10:00:58.588Z,97143.78
2022-11-21T10:03:08.074Z,97153.75
2022-11-21T10:05:18.277Z,96927.78
2022-11-21T10:07:32.269Z,97138.13
2022-11-21T10:10:09.494Z,97137.53
2022-11-21T10:12:40.633Z,97130.06
2022-11-21T10:15:07.761Z,97130.63
2022-11-21T10:17:30.415Z,97131.56
2022-11-21T10:20:07.063Z,97136.88
2022-11-21T10:22:59.140Z,97129.88
2022-11-21T10:25:19.772Z,97133.22
2022-11-21T10:27:41.078Z,97133.03
2022-11-21T10:29:56.567Z,97132.84
2022-11-21T10:32:14.433Z,97129.09
2022-11-21T10:34:28.745Z,97132.28
2022-11-21T10:36:43.135Z,97129.38
2022-11-21T10:38:50.407Z,97134.19
2022-11-21T10:41:09.383Z,97133.06
2022-11-21T10:43:59.865Z,97134.03
2022-11-21T10:46:08.662Z,97133.28
2022-11-21T10:48:14.166Z,97129.31
2022-11-21T10:50:53.410Z,97125.38
2022-11-21T10:53:34.457Z,97132.41
2022-11-21T10:56:04.396Z,97122.50
2022-11-21T10:58:21.944Z,97122.50
2022-11-21T11:00:30.351Z,97124.66
2022-11-21T11:02:35.968Z,97124.44
2022-11-21T11:04:49.214Z,97129.22
2022-11-21T11:07:00.407Z,97120.28
2022-11-21T11:09:28.793Z,97113.16
2022-11-21T11:11:35.464Z,97122.25
2022-11-21T11:14:03.748Z,97117.78
2022-11-21T11:16:22.119Z,97115.47
2022-11-21T11:18:30.289Z,97126.53
2022-11-21T11:20:41.640Z,97123.84
2022-11-21T11:22:48.100Z,97135.94
2022-11-21T11:25:00.807Z,97122.66
2022-11-21T11:27:08.751Z,97124.25
2022-11-21T11:29:20.715Z,97121.50
2022-11-21T11:31:27.112Z,97116.06
2022-11-21T11:33:36.672Z,97111.59
2022-11-21T11:35:43.434Z,97109.78
2022-11-21T11:38:03.997Z,97107.09
2022-11-21T11:40:28.880Z,97114.81
2022-11-21T11:43:25.646Z,97110.44
2022-11-21T11:46:15.582Z,97116.19
2022-11-21T11:48:23.200Z,97105.38
2022-11-21T11:50:38.194Z,97109.34
2022-11-21T11:53:07.062Z,97113.66
2022-11-21T11:55:26.549Z,97119.59
2022-11-21T11:57:36.157Z,97109.34
2022-11-21T11:59:51.646Z,97118.56
2022-11-21T12:02:11.991Z,97119.19
2022-11-21T12:04:22.654Z,97110.16
2022-11-21T12:07:18.001Z,97113.41
2022-11-21T12:09:14.879Z,97104.72
2022-11-21T12:11:52.792Z,97127.59
2022-11-21T12:14:08.887Z,97091.94
2022-11-21T12:16:14.764Z,97108.16
2022-11-21T12:18:35.082Z,97104.91
2022-11-21T12:20:59.280Z,97101.16
2022-11-21T12:23:07.659Z,97108.66
2022-11-21T12:25:15.757Z,97096.06
2022-11-21T12:27:34.988Z,97097.00
2022-11-21T12:30:10.136Z,97100.09
2022-11-21T12:32:41.024Z,97100.31
2022-11-21T12:35:20.846Z,97097.59
2022-11-21T12:37:47.154Z,97099.72
2022-11-21T12:40:08.026Z,97098.34
2022-11-21T12:42:44.323Z,97096.06
2022-11-21T12:45:18.191Z,97090.34
2022-11-21T12:48:30.030Z,97095.69
2022-11-21T12:51:07.111Z,97094.66
2022-11-21T12:53:46.927Z,97093.94
2022-11-21T12:56:06.442Z,97080.03
2022-11-21T12:58:34.071Z,97089.41
2022-11-21T13:01:03.891Z,97090.69
2022-11-21T13:03:42.643Z,97091.41
2022-11-21T13:05:55.277Z,97086.69
2022-11-21T13:08:11.605Z,97079.06
2022-11-21T13:10:21.050Z,97091.72
2022-11-21T13:12:43.477Z,97084.50
2022-11-21T13:14:58.932Z,97074.47
2022-11-21T13:17:25.425Z,97090.91
2022-11-21T13:19:47.146Z,97094.56
2022-11-21T13:21:55.590Z,97084.72
2022-11-21T13:24:01.118Z,97088.69
2022-11-21T13:26:57.035Z,97094.56
2022-11-21T13:29:13.922Z,97101.03
2022-11-21T13:31:36.193Z,97094.34
2022-11-21T13:33:55.037Z,97090.78
2022-11-21T13:36:00.635Z,97094.13
2022-11-21T13:38:13.033Z,97113.66
2022-11-21T13:41:00.917Z,97079.47
2022-11-21T13:43:33.166Z,97086.41
2022-11-21T13:45:48.535Z,97098.75
2022-11-21T13:48:25.725Z,97100.41
2022-11-21T13:51:19.636Z,97092.03
2022-11-21T13:54:03.889Z,97100.09
2022-11-21T13:56:36.056Z,97109.59
2022-11-21T13:59:06.848Z,97103.88
2022-11-21T14:01:43.287Z,97108.56
2022-11-21T14:04:21.281Z,97097.47
2022-11-21T14:06:48.559Z,97108.78
2022-11-21T14:09:39.375Z,97108.56
2022-11-21T14:11:52.006Z,97101.44
2022-11-21T14:13:57.587Z,97099.47
2022-11-21T14:16:31.566Z,97100.41
2022-11-21T14:18:45.298Z,97099.81
2022-11-21T14:20:59.941Z,97096.44
2022-11-21T14:23:22.656Z,97101.88
2022-11-21T14:25:39.575Z,97101.56
2022-11-21T14:27:52.915Z,97105.53
2022-11-21T14:29:58.424Z,97100.50
2022-11-21T14:32:07.912Z,97105.63
2022-11-21T14:34:13.374Z,97104.06
2022-11-21T14:36:23.318Z,97112.31
2022-11-21T14:38:38.294Z,97112.50
2022-11-21T14:40:43.829Z,97110.88
2022-11-21T14:42:49.319Z,97115.75
2022-11-21T14:45:11.367Z,97114.41
2022-11-21T14:47:26.338Z,97128.38
2022-11-21T14:49:32.731Z,97116.84
2022-11-21T14:51:40.052Z,97120.72
2022-11-21T14:53:51.909Z,97116.25
2022-11-21T14:56:01.508Z,97115.59
2022-11-21T14:58:10.525Z,97120.81
2022-11-21T15:00:58.160Z,97126.22
2022-11-21T15:02:48.739Z,97121.22
2022-11-21T15:04:58.368Z,97120.91
2022-11-21T15:07:04.374Z,97112.81
2022-11-21T15:11:54.430Z,97121.34
2022-11-21T15:14:15.981Z,97116.31
2022-11-21T15:16:22.999Z,97120.47
2022-11-21T15:18:33.498Z,97123.28
2022-11-21T15:20:39.579Z,97115.66
2022-11-21T15:22:45.480Z,97119.56
2022-11-21T15:24:54.656Z,97119.13
2022-11-21T15:27:01.188Z,97116.28
2022-11-21T15:29:23.802Z,97137.34
2022-11-21T15:31:31.451Z,97112.91
2022-11-21T15:36:25.744Z,97135.91
2022-11-21T15:38:43.449Z,97132.16
2022-11-21T15:41:27.417Z,97138.88
2022-11-21T15:43:43.677Z,97135.72
2022-11-21T15:45:49.241Z,97125.84
2022-11-21T15:47:55.763Z,97127.44
2022-11-21T15:50:03.681Z,97126.19
2022-11-21T15:52:16.137Z,97122.47
2022-11-21T15:54:24.675Z,97143.69
2022-11-21T15:56:34.743Z,97127.66
2022-11-21T15:58:40.448Z,97134.00
2022-11-21T16:00:45.947Z,97127.94
2022-11-21T16:02:52.339Z,97128.91
2022-11-21T16:04:57.817Z,97126.19
2022-11-21T16:07:03.863Z,97116.13
2022-11-21T16:09:10.636Z,97126.19
2022-11-21T16:11:23.931Z,97116.69
2022-11-21T16:13:32.404Z,97118.53
2022-11-21T16:15:38.737Z,97119.56
2022-11-21T16:17:47.370Z,97113.34
2022-11-21T16:19:53.072Z,97111.13
2022-11-21T16:21:59.452Z,97117.91
2022-11-21T16:24:06.085Z,97118.94
2022-11-21T16:26:14.098Z,97117.25
2022-11-21T16:28:20.523Z,97117.25
2022-11-21T16:30:28.757Z,97118.47
2022-11-21T16:32:34.131Z,97118.03
2022-11-21T16:34:40.341Z,97117.47
2022-11-21T16:36:46.060Z,97120.09
2022-11-21T16:38:51.567Z,97121.19
2022-11-21T16:40:59.881Z,97108.75
2022-11-21T16:43:14.323Z,97129.38
2022-11-21T16:45:20.513Z,97126.19
2022-11-21T16:47:29.552Z,97115.78
2022-11-21T16:49:35.292Z,97123.81
2022-11-21T16:51:40.985Z,97117.66
2022-11-21T16:53:50.404Z,97117.66
2022-11-21T16:56:04.169Z,97112.53
2022-11-21T16:58:09.538Z,97111.88
2022-11-21T17:00:16.886Z,97119.88
2022-11-21T17:02:22.341Z,97127.88
2022-11-21T17:04:30.870Z,97120.06
2022-11-21T17:06:37.685Z,97125.66
2022-11-21T17:08:43.479Z,97122.88
2022-11-21T17:10:48.890Z,97127.06
2022-11-21T17:12:55.289Z,97123.63
2022-11-21T17:15:00.750Z,97124.47
2022-11-21T17:17:07.527Z,97129.19
2022-11-21T17:19:16.433Z,97127.31
2022-11-21T17:21:25.622Z,97115.06
2022-11-21T17:23:34.260Z,97129.00
2022-11-21T17:25:40.610Z,97124.53
2022-11-21T17:27:47.158Z,97127.13
2022-11-21T17:29:53.370Z,97134.22
2022-11-21T17:32:00.469Z,97139.25
2022-11-21T17:34:08.431Z,97134.66
2022-11-21T17:36:17.654Z,97137.00
2022-11-21T17:38:26.658Z,97139.06
2022-11-21T17:40:32.080Z,97135.31
2022-11-21T17:42:37.509Z,97131.63
2022-11-21T17:44:43.711Z,97135.88
2022-11-21T17:46:49.278Z,97129.75
2022-11-21T17:48:58.399Z,97079.50
2022-11-21T17:51:07.838Z,97131.53
2022-11-21T17:53:13.585Z,97138.31
2022-11-21T17:55:22.498Z,97144.06
2022-11-21T17:57:28.892Z,97134.69
2022-11-21T17:59:34.906Z,97146.50
2022-11-21T18:01:40.735Z,97139.41
2022-11-21T18:03:47.408Z,97151.34
2022-11-21T18:06:03.543Z,97143.53
2022-11-21T18:08:09.004Z,97154.03
2022-11-21T18:10:41.328Z,97142.50
2022-11-21T18:12:44.158Z,97143.97
2022-11-21T18:14:49.724Z,97143.88
2022-11-21T18:16:59.588Z,97143.25
2022-11-21T18:19:06.622Z,97151.13
2022-11-21T18:21:15.516Z,97149.31
2022-11-21T18:23:22.090Z,97142.03
2022-11-21T18:25:27.574Z,97137.63
2022-11-21T18:27:33.559Z,97147.97
2022-11-21T18:29:42.604Z,97147.25
2022-11-21T18:31:48.147Z,97144.09
2022-11-21T18:33:55.855Z,97147.78
2022-11-21T18:36:03.058Z,97153.38
2022-11-21T18:38:08.814Z,97146.31
2022-11-21T18:40:15.446Z,97150.59
2022-11-21T18:42:21.833Z,97151.53
2022-11-21T18:44:27.367Z,97149.66
2022-11-21T18:46:39.798Z,97148.63
2022-11-21T18:49:02.192Z,97142.59
2022-11-21T18:51:13.996Z,97155.25
2022-11-21T18:53:19.548Z,97154.31
2022-11-21T18:55:27.555Z,97152.34
2022-11-21T18:57:34.533Z,97158.22
2022-11-21T18:59:40.094Z,97155.63
2022-11-21T19:01:49.938Z,97153.63
2022-11-21T19:03:56.942Z,97157.81
2022-11-21T19:06:03.380Z,97164.72
2022-11-21T19:08:11.321Z,97168.81
2022-11-21T19:10:41.395Z,97159.22
2022-11-21T19:12:42.734Z,97184.81
2022-11-21T19:14:52.102Z,97177.19
2022-11-21T19:17:00.441Z,97183.25
2022-11-21T19:21:40.389Z,97183.88
2022-11-21T19:23:47.772Z,97173.75
2022-11-21T19:25:53.751Z,97182.88
2022-11-21T19:28:04.362Z,97182.88
2022-11-21T19:30:11.112Z,97177.00
2022-11-21T19:32:19.405Z,97185.78
2022-11-21T19:34:25.939Z,97184.44
2022-11-21T19:36:31.473Z,97181.47
2022-11-21T19:38:37.451Z,97183.16
2022-11-21T19:40:55.829Z,97183.72
2022-11-21T19:43:01.251Z,97185.09
2022-11-21T19:45:09.008Z,97184.91
2022-11-21T19:47:15.426Z,97182.38
2022-11-21T19:49:23.892Z,97190.31
2022-11-21T19:51:35.410Z,97192.97
2022-11-21T19:53:43.247Z,97193.19
2022-11-21T19:55:48.670Z,97197.06
2022-11-21T19:57:54.067Z,97201.88
2022-11-21T20:00:00.413Z,97202.53
2022-11-21T20:02:22.356Z,97201.69
2022-11-21T20:04:31.115Z,97206.00
2022-11-21T20:06:41.580Z,97206.06
2022-11-21T20:08:51.208Z,97205.47
2022-11-21T20:11:00.774Z,97212.34
2022-11-21T20:13:09.875Z,97202.97
2022-11-21T20:15:16.611Z,97211.69
2022-11-21T20:17:22.029Z,97216.72
2022-11-21T20:19:31.609Z,97214.88
2022-11-21T20:21:37.831Z,97206.16
2022-11-21T20:23:43.700Z,97209.50
2022-11-21T20:25:54.396Z,97218.25
2022-11-21T20:27:59.866Z,97214.88
2022-11-21T20:30:09.327Z,97222.44
2022-11-21T20:32:15.613Z,97217.53
2022-11-21T20:34:21.027Z,97221.56
2022-11-21T20:36:32.780Z,97215.31
2022-11-21T20:38:41.643Z,97221.09
2022-11-21T20:40:49.126Z,97226.03
2022-11-21T20:42:56.517Z,97216.63
2022-11-21T20:47:29.498Z,97213.94
2022-11-21T20:49:34.916Z,97215.31
2022-11-21T20:54:11.549Z,97215.09
2022-11-21T20:56:17.636Z,97225.97
2022-11-21T20:58:24.000Z,97220.56
2022-11-21T21:00:30.208Z,97225.59
2022-11-21T21:02:35.562Z,97227.94
2022-11-21T21:04:42.426Z,97224.66
2022-11-21T21:06:50.676Z,97228.38
2022-11-21T21:08:56.539Z,97232.84
2022-11-21T21:11:25.523Z,97226.69
2022-11-21T21:13:35.286Z,97221.41
2022-11-21T21:15:40.780Z,97231.00
2022-11-21T21:17:47.270Z,97232.13
2022-11-21T21:19:52.920Z,97222.63
2022-11-21T21:22:01.075Z,97235.06
2022-11-21T21:24:15.020Z,97222.06
2022-11-21T21:26:25.915Z,97221.09
2022-11-21T21:28:31.371Z,97222.78
2022-11-21T21:30:37.855Z,97227.81
2022-11-21T21:32:43.295Z,97227.81
2022-11-21T21:34:48.839Z,97226.53
2022-11-21T21:36:55.100Z,97214.59
2022-11-21T21:39:04.204Z,97207.50
2022-11-21T21:41:13.819Z,97207.63
2022-11-21T21:43:20.097Z,97209.38
2022-11-21T21:45:25.655Z,97218.31
2022-11-21T21:47:31.135Z,97214.19
2022-11-21T21:49:37.423Z,97214.59
2022-11-21T21:51:43.161Z,97222.56
2022-11-21T21:53:51.751Z,97166.00
2022-11-21T21:56:04.440Z,97213.25
2022-11-21T21:58:10.960Z,97214.19
2022-11-21T22:00:17.766Z,97200.78
2022-11-21T22:02:24.005Z,97199.84
2022-11-21T22:04:31.377Z,97202.72
2022-11-21T22:06:38.801Z,97195.03
2022-11-21T22:08:46.986Z,97195.25
2022-11-21T22:10:52.861Z,97196.25
2022-11-21T22:13:01.065Z,97191.41
2022-11-21T22:15:09.954Z,97195.09
2022-11-21T22:17:15.615Z,97185.97
2022-11-21T22:19:22.314Z,97182.69
2022-11-21T22:21:32.729Z,97172.56
2022-11-21T22:23:46.714Z,97169.75
2022-11-21T22:26:03.569Z,97177.56
2022-11-21T22:28:12.957Z,97179.53
2022-11-21T22:30:20.036Z,97176.38
2022-11-21T22:32:25.456Z,97169.09
2022-11-21T22:34:32.322Z,97175.06
2022-11-21T22:36:37.850Z,97182.28
2022-11-21T22:38:43.652Z,97171.19
2022-11-21T22:40:49.851Z,97166.09
2022-11-21T22:42:56.064Z,97167.19
2022-11-21T22:45:04.288Z,97161.16
2022-11-21T22:47:10.495Z,97162.16
2022-11-21T22:49:15.873Z,97153.78
2022-11-21T22:51:24.975Z,97159.16
2022-11-21T22:53:35.664Z,97159.31
2022-11-21T22:55:44.039Z,97156.13
2022-11-21T22:57:49.524Z,97165.84
2022-11-21T22:59:56.481Z,97168.72
2022-11-21T23:02:05.975Z,97169.81
2022-11-21T23:04:17.293Z,97158.63
2022-11-21T23:06:27.033Z,97167.53
2022-11-21T23:08:34.177Z,97161.75
2022-11-21T23:10:40.398Z,97164.34
2022-11-21T23:12:47.296Z,97166.09
2022-11-21T23:14:52.825Z,97177.41
2022-11-21T23:16:58.155Z,97165.25
2022-11-21T23:19:07.452Z,97166.94
2022-11-21T23:21:15.141Z,97168.59
2022-11-21T23:23:20.538Z,97172.16
2022-11-21T23:25:27.326Z,97164.34
2022-11-21T23:27:32.733Z,97163.50
2022-11-21T23:29:38.141Z,97165.34
2022-11-21T23:31:44.399Z,97162.06
2022-11-21T23:33:49.863Z,97165.59
2022-11-21T23:35:58.389Z,97164.00
2022-11-21T23:38:06.596Z,97158.97
2022-11-21T23:40:13.701Z,97164.34
2022-11-21T23:42:19.101Z,97156.59
2022-11-21T23:44:25.504Z,97161.78
2022-11-21T23:46:31.511Z,97157.44
2022-11-21T23:48:37.206Z,97151.75
2022-11-21T23:50:43.478Z,97164.50
2022-11-21T23:52:52.588Z,97160.88
2022-11-21T23:54:58.019Z,97159.81
2022-11-21T23:57:04.294Z,97157.81
2022-11-21T23:59:10.016Z,97157.63
